createdAt,value
2023-04-07T00:00:16.210Z,21.40
2023-04-07T00:02:49.066Z,21.10
2023-04-07T00:05:18.920Z,22.92
2023-04-07T00:07:55.884Z,20.63
2023-04-07T00:10:26.613Z,26.10
2023-04-07T00:12:56.254Z,12.80
2023-04-07T00:15:25.798Z,21.70
2023-04-07T00:17:57.963Z,18.80
2023-04-07T00:20:27.687Z,21.98
2023-04-07T00:22:57.227Z,21.08
2023-04-07T00:25:26.831Z,24.92
2023-04-07T00:27:56.370Z,23.58
2023-04-07T00:30:26.001Z,24.55
2023-04-07T00:32:58.194Z,16.08
2023-04-07T00:35:27.791Z,17.15
2023-04-07T00:37:57.326Z,25.05
2023-04-07T00:40:27.098Z,23.95
2023-04-07T00:42:56.648Z,20.15
2023-04-07T00:45:26.237Z,20.40
2023-04-07T00:47:59.745Z,20.27
2023-04-07T00:50:29.500Z,19.08
2023-04-07T00:52:59.114Z,19.65
2023-04-07T00:55:28.702Z,23.08
2023-04-07T00:58:00.544Z,23.83
2023-04-07T01:00:30.801Z,22.85
2023-04-07T01:03:09.495Z,21.13
2023-04-07T01:05:45.741Z,23.52
2023-04-07T01:08:20.612Z,19.13
2023-04-07T01:10:54.694Z,19.92
2023-04-07T01:13:31.693Z,20.98
2023-04-07T01:16:04.317Z,25.25
2023-04-07T01:18:39.678Z,23.63
2023-04-07T01:21:12.430Z,22.90
2023-04-07T01:23:54.873Z,20.95
2023-04-07T01:26:29.345Z,22.73
2023-04-07T01:29:14.970Z,21.88
2023-04-07T01:31:51.804Z,25.42
2023-04-07T01:34:22.365Z,23.38
2023-04-07T01:36:54.044Z,22.38
2023-04-07T01:39:24.658Z,24.23
2023-04-07T01:41:55.836Z,24.33
2023-04-07T01:44:26.704Z,24.77
2023-04-07T01:47:00.127Z,28.20
2023-04-07T01:49:30.095Z,28.55
2023-04-07T01:52:00.916Z,21.38
2023-04-07T01:54:31.738Z,28.20
2023-04-07T01:57:01.661Z,26.75
2023-04-07T01:59:31.436Z,24.65
2023-04-07T02:02:03.748Z,29.50
2023-04-07T02:04:39.277Z,25.30
2023-04-07T02:07:15.492Z,26.35
2023-04-07T02:12:18.651Z,30.02
2023-04-07T02:14:48.675Z,27.55
2023-04-07T02:17:21.960Z,33.40
2023-04-07T02:19:53.430Z,31.13
2023-04-07T02:22:23.030Z,34.78
2023-04-07T02:24:52.607Z,31.80
2023-04-07T02:27:22.122Z,34.97
2023-04-07T02:29:51.702Z,34.35
2023-04-07T02:32:23.806Z,35.55
2023-04-07T02:34:53.356Z,33.90
2023-04-07T02:37:22.930Z,38.63
2023-04-07T02:39:52.463Z,36.25
2023-04-07T02:42:21.968Z,30.67
2023-04-07T02:44:51.476Z,32.20
2023-04-07T02:47:23.659Z,31.52
2023-04-07T02:49:53.210Z,35.45
2023-04-07T02:52:22.732Z,34.42
2023-04-07T02:54:52.625Z,30.05
2023-04-07T02:57:22.369Z,32.38
2023-04-07T02:59:51.946Z,29.33
2023-04-07T03:02:24.100Z,31.08
2023-04-07T03:04:54.781Z,29.13
2023-04-07T03:07:24.427Z,25.95
2023-04-07T03:09:53.965Z,27.77
2023-04-07T03:12:23.481Z,31.63
2023-04-07T03:14:53.048Z,28.35
2023-04-07T03:17:25.433Z,28.95
2023-04-07T03:19:55.028Z,30.10
2023-04-07T03:22:24.595Z,26.30
2023-04-07T03:24:54.117Z,29.65
2023-04-07T03:27:23.772Z,28.50
2023-04-07T03:29:53.820Z,31.17
2023-04-07T03:32:26.002Z,30.83
2023-04-07T03:34:55.562Z,36.47
2023-04-07T03:37:25.120Z,36.20
2023-04-07T03:39:54.903Z,28.95
2023-04-07T03:42:24.437Z,30.25
2023-04-07T03:44:54.014Z,34.33
2023-04-07T03:47:26.185Z,36.65
2023-04-07T03:49:55.707Z,32.28
2023-04-07T03:52:25.236Z,41.45
2023-04-07T03:54:54.742Z,39.45
2023-04-07T03:57:24.704Z,34.40
2023-04-07T03:59:54.632Z,37.45
2023-04-07T04:02:26.798Z,35.10
2023-04-07T04:04:56.599Z,30.77
2023-04-07T04:07:26.522Z,36.35
2023-04-07T04:09:56.297Z,30.50
2023-04-07T04:12:25.866Z,26.80
2023-04-07T04:14:55.424Z,26.92
2023-04-07T04:17:28.274Z,26.90
2023-04-07T04:19:59.247Z,23.52
2023-04-07T04:22:28.804Z,23.55
2023-04-07T04:24:58.362Z,26.42
2023-04-07T04:27:27.886Z,24.27
2023-04-07T04:29:57.392Z,24.90
2023-04-07T04:32:29.631Z,20.70
2023-04-07T04:34:59.201Z,20.27
2023-04-07T04:37:28.935Z,25.70
2023-04-07T04:39:58.462Z,20.00
2023-04-07T04:42:28.945Z,21.10
2023-04-07T04:44:58.589Z,21.40
2023-04-07T04:47:30.770Z,22.02
2023-04-07T04:50:00.680Z,17.88
2023-04-07T04:52:30.257Z,20.85
2023-04-07T04:54:59.806Z,21.35
2023-04-07T04:57:29.366Z,24.08
2023-04-07T04:59:58.946Z,19.75
2023-04-07T05:02:31.260Z,14.10
2023-04-07T05:05:01.277Z,19.85
2023-04-07T05:07:31.203Z,20.10
2023-04-07T05:10:01.603Z,22.67
2023-04-07T05:12:31.333Z,21.17
2023-04-07T05:15:00.852Z,22.13
2023-04-07T05:17:32.994Z,22.48
2023-04-07T05:20:02.553Z,22.02
2023-04-07T05:22:32.263Z,17.60
2023-04-07T05:25:01.874Z,28.85
2023-04-07T05:27:31.437Z,20.17
2023-04-07T05:30:01.032Z,19.52
2023-04-07T05:32:33.283Z,23.63
2023-04-07T05:35:02.876Z,18.80
2023-04-07T05:37:32.496Z,20.92
2023-04-07T05:40:02.035Z,23.42
2023-04-07T05:42:31.569Z,25.23
2023-04-07T05:45:01.112Z,18.80
2023-04-07T05:47:33.323Z,19.83
2023-04-07T05:50:02.873Z,18.58
2023-04-07T05:52:32.480Z,22.42
2023-04-07T05:55:02.572Z,23.00
2023-04-07T05:57:33.304Z,20.95
2023-04-07T06:00:02.950Z,23.98
2023-04-07T06:02:35.263Z,26.33
2023-04-07T06:05:04.994Z,23.25
2023-04-07T06:07:34.565Z,21.67
2023-04-07T06:10:04.152Z,21.13
2023-04-07T06:12:33.724Z,20.92
2023-04-07T06:15:03.282Z,19.60
2023-04-07T06:17:35.522Z,18.42
2023-04-07T06:20:05.122Z,23.23
2023-04-07T06:22:34.696Z,20.50
2023-04-07T06:25:04.257Z,17.95
2023-04-07T06:27:33.819Z,21.25
2023-04-07T06:30:03.576Z,20.13
2023-04-07T06:32:36.213Z,20.42
2023-04-07T06:35:05.940Z,22.60
2023-04-07T06:37:35.595Z,18.80
2023-04-07T06:40:05.146Z,22.60
2023-04-07T06:42:34.663Z,19.00
2023-04-07T06:45:04.248Z,20.95
2023-04-07T06:47:36.489Z,20.15
2023-04-07T06:50:06.306Z,22.85
2023-04-07T06:52:35.864Z,21.98
2023-04-07T06:55:05.501Z,22.10
2023-04-07T06:57:35.023Z,18.77
2023-04-07T07:00:04.791Z,22.77
2023-04-07T07:02:37.105Z,22.02
2023-04-07T07:05:08.458Z,22.80
2023-04-07T07:07:38.074Z,19.77
2023-04-07T07:10:12.206Z,18.17
2023-04-07T07:12:41.736Z,20.77
2023-04-07T07:15:12.222Z,18.70
2023-04-07T07:17:44.411Z,18.08
2023-04-07T07:20:14.678Z,16.75
2023-04-07T07:22:44.395Z,18.88
2023-04-07T07:25:14.150Z,19.17
2023-04-07T07:27:43.739Z,19.67
2023-04-07T07:30:14.227Z,23.52
2023-04-07T07:32:46.469Z,18.95
2023-04-07T07:35:16.097Z,20.08
2023-04-07T07:37:46.112Z,20.83
2023-04-07T07:40:15.986Z,20.48
2023-04-07T07:42:45.557Z,21.20
2023-04-07T07:45:15.138Z,18.52
2023-04-07T07:47:47.347Z,21.98
2023-04-07T07:50:16.905Z,19.42
2023-04-07T07:52:47.960Z,19.13
2023-04-07T07:55:17.581Z,21.10
2023-04-07T07:57:47.144Z,22.95
2023-04-07T08:00:17.418Z,17.90
2023-04-07T08:02:49.632Z,17.50
2023-04-07T08:05:19.255Z,20.13
2023-04-07T08:07:49.042Z,19.05
2023-04-07T08:10:20.360Z,17.95
2023-04-07T08:12:49.948Z,16.63
2023-04-07T08:15:19.568Z,17.20
2023-04-07T08:17:52.990Z,19.45
2023-04-07T08:20:24.073Z,18.15
2023-04-07T08:22:53.818Z,21.80
2023-04-07T08:25:25.339Z,19.63
2023-04-07T08:27:54.896Z,17.92
2023-04-07T08:30:24.720Z,19.33
2023-04-07T08:32:56.937Z,18.98
2023-04-07T08:35:26.625Z,15.65
2023-04-07T08:37:56.430Z,19.23
2023-04-07T08:40:27.448Z,18.83
2023-04-07T08:42:57.316Z,15.88
2023-04-07T08:45:29.246Z,20.23
2023-04-07T08:48:03.892Z,20.08
2023-04-07T08:50:34.728Z,16.75
2023-04-07T08:53:08.840Z,19.77
2023-04-07T08:55:38.933Z,16.65
2023-04-07T08:58:12.535Z,14.88
2023-04-07T09:00:46.005Z,16.90
2023-04-07T09:03:19.560Z,17.65
2023-04-07T09:05:50.124Z,15.23
2023-04-07T09:08:19.718Z,12.95
2023-04-07T09:10:49.328Z,16.38
2023-04-07T09:13:18.923Z,16.73
2023-04-07T09:15:48.719Z,18.33
2023-04-07T09:18:21.221Z,17.73
2023-04-07T09:21:01.380Z,18.88
2023-04-07T09:23:32.861Z,14.98
2023-04-07T09:26:04.106Z,14.35
2023-04-07T09:28:44.680Z,13.70
2023-04-07T09:31:14.432Z,14.95
2023-04-07T09:33:46.919Z,16.00
2023-04-07T09:36:16.858Z,14.23
2023-04-07T09:38:47.668Z,14.68
2023-04-07T09:41:19.393Z,15.30
2023-04-07T09:43:50.254Z,16.08
2023-04-07T09:46:21.256Z,14.85
2023-04-07T09:49:05.395Z,16.05
2023-04-07T09:51:35.922Z,15.80
2023-04-07T09:54:05.575Z,15.10
2023-04-07T09:56:35.268Z,13.68
2023-04-07T09:59:05.905Z,16.38
2023-04-07T10:01:35.654Z,15.15
2023-04-07T10:04:08.349Z,18.90
2023-04-07T10:06:38.069Z,13.88
2023-04-07T10:09:07.676Z,17.17
2023-04-07T10:11:37.732Z,11.95
2023-04-07T10:14:07.717Z,14.07
2023-04-07T10:16:37.549Z,14.15
2023-04-07T10:19:10.950Z,15.60
2023-04-07T10:21:43.531Z,18.85
2023-04-07T10:24:29.097Z,14.75
2023-04-07T10:27:02.640Z,15.73
2023-04-07T10:29:34.240Z,16.38
2023-04-07T10:32:05.089Z,18.98
2023-04-07T10:35:02.344Z,18.80
2023-04-07T10:37:34.496Z,18.45
2023-04-07T10:40:31.666Z,15.02
2023-04-07T10:45:56.622Z,17.40
2023-04-07T10:48:28.583Z,15.07
2023-04-07T10:51:21.861Z,16.60
2023-04-07T10:54:22.552Z,15.65
2023-04-07T10:57:08.122Z,16.73
2023-04-07T10:59:37.910Z,14.35
2023-04-07T11:02:35.793Z,17.95
2023-04-07T11:05:06.038Z,17.65
2023-04-07T11:07:54.129Z,14.32
2023-04-07T11:10:24.314Z,19.38
2023-04-07T11:13:10.596Z,19.02
2023-04-07T11:15:41.220Z,15.98
2023-04-07T11:18:18.816Z,21.63
2023-04-07T11:20:53.657Z,17.27
2023-04-07T11:23:27.569Z,18.00
2023-04-07T11:26:03.492Z,15.35
2023-04-07T11:28:34.081Z,17.50
2023-04-07T11:31:03.717Z,17.42
2023-04-07T11:33:37.163Z,18.58
2023-04-07T11:36:07.530Z,18.92
2023-04-07T11:38:44.924Z,14.98
2023-04-07T11:41:17.703Z,17.40
2023-04-07T11:43:47.688Z,15.63
2023-04-07T11:46:20.914Z,20.10
2023-04-07T11:48:50.526Z,13.98
2023-04-07T11:51:20.910Z,13.18
2023-04-07T11:53:57.836Z,19.02
2023-04-07T11:56:28.300Z,14.30
2023-04-07T11:58:58.439Z,15.32
2023-04-07T12:01:42.394Z,17.73
2023-04-07T12:04:16.336Z,16.70
2023-04-07T12:06:47.325Z,19.02
2023-04-07T12:09:36.200Z,18.52
2023-04-07T12:12:08.118Z,14.43
2023-04-07T12:14:38.178Z,16.88
2023-04-07T12:17:09.591Z,15.75
2023-04-07T12:19:39.801Z,18.85
2023-04-07T12:22:09.429Z,14.20
2023-04-07T12:24:42.016Z,16.50
2023-04-07T12:27:12.014Z,15.23
2023-04-07T12:29:41.887Z,16.35
2023-04-07T12:32:11.477Z,16.63
2023-04-07T12:34:41.089Z,15.65
2023-04-07T12:37:10.655Z,15.48
2023-04-07T12:39:42.781Z,14.93
2023-04-07T12:42:12.465Z,14.35
2023-04-07T12:44:42.076Z,18.23
2023-04-07T12:47:12.452Z,17.25
2023-04-07T12:49:41.986Z,15.48
2023-04-07T12:52:12.265Z,18.30
2023-04-07T12:54:45.581Z,13.60
2023-04-07T12:57:16.207Z,15.93
2023-04-07T12:59:46.011Z,16.30
2023-04-07T13:02:18.347Z,16.45
2023-04-07T13:04:49.049Z,16.13
2023-04-07T13:07:19.228Z,16.08
2023-04-07T13:09:51.397Z,16.00
2023-04-07T13:12:21.211Z,15.65
2023-04-07T13:14:59.713Z,16.10
2023-04-07T13:17:30.019Z,15.98
2023-04-07T13:19:59.635Z,12.63
2023-04-07T13:22:29.666Z,14.43
2023-04-07T13:25:02.347Z,19.13
2023-04-07T13:27:31.998Z,18.30
2023-04-07T13:30:01.577Z,14.93
2023-04-07T13:32:31.532Z,14.48
2023-04-07T13:35:01.076Z,16.52
2023-04-07T13:37:30.670Z,17.00
2023-04-07T13:40:03.038Z,15.38
2023-04-07T13:42:32.601Z,14.95
2023-04-07T13:45:02.163Z,13.75
2023-04-07T13:47:34.390Z,14.27
2023-04-07T13:50:04.585Z,15.35
2023-04-07T13:52:35.672Z,15.23
2023-04-07T13:55:09.141Z,14.77
2023-04-07T13:57:38.766Z,14.75
2023-04-07T14:00:10.127Z,17.35
2023-04-07T14:02:40.229Z,16.42
2023-04-07T14:05:10.267Z,14.77
2023-04-07T14:07:39.806Z,17.33
2023-04-07T14:10:12.480Z,18.20
2023-04-07T14:12:42.243Z,16.30
2023-04-07T14:15:13.045Z,17.98
2023-04-07T14:17:42.628Z,17.92
2023-04-07T14:20:12.705Z,13.07
2023-04-07T14:22:42.229Z,18.17
2023-04-07T14:25:14.412Z,17.58
2023-04-07T14:27:43.950Z,16.90
2023-04-07T14:30:14.878Z,17.30
2023-04-07T14:32:44.524Z,19.05
2023-04-07T14:35:14.113Z,19.55
2023-04-07T14:37:43.652Z,18.70
2023-04-07T14:40:16.196Z,16.48
2023-04-07T14:42:45.747Z,16.08
2023-04-07T14:45:15.671Z,14.18
2023-04-07T14:47:45.248Z,18.00
2023-04-07T14:50:14.913Z,17.00
2023-04-07T14:52:44.789Z,16.58
2023-04-07T14:55:17.112Z,17.52
2023-04-07T14:57:46.700Z,18.00
2023-04-07T15:00:17.438Z,20.95
2023-04-07T15:02:47.231Z,17.23
2023-04-07T15:05:16.957Z,19.35
2023-04-07T15:07:50.050Z,16.88
2023-04-07T15:10:22.946Z,19.65
2023-04-07T15:12:52.507Z,14.63
2023-04-07T15:15:22.295Z,16.10
2023-04-07T15:17:51.857Z,15.43
2023-04-07T15:20:21.445Z,16.10
2023-04-07T15:22:50.966Z,16.52
2023-04-07T15:25:23.316Z,16.48
2023-04-07T15:27:52.907Z,19.58
2023-04-07T15:30:22.515Z,23.92
2023-04-07T15:33:02.014Z,18.35
2023-04-07T15:35:31.557Z,16.65
2023-04-07T15:38:02.430Z,18.13
2023-04-07T15:40:34.831Z,17.70
2023-04-07T15:43:04.383Z,14.55
2023-04-07T15:45:34.045Z,21.50
2023-04-07T15:48:03.586Z,16.92
2023-04-07T15:50:34.506Z,18.15
2023-04-07T15:53:04.839Z,15.40
2023-04-07T15:55:38.305Z,18.65
2023-04-07T15:58:08.549Z,16.45
2023-04-07T16:00:38.532Z,15.05
2023-04-07T16:03:08.337Z,18.45
2023-04-07T16:05:38.267Z,18.92
2023-04-07T16:08:08.052Z,17.50
2023-04-07T16:10:40.216Z,20.80
2023-04-07T16:13:09.852Z,17.67
2023-04-07T16:15:41.146Z,14.05
2023-04-07T16:18:12.751Z,19.17
2023-04-07T16:20:42.455Z,17.05
2023-04-07T16:23:12.604Z,13.27
2023-04-07T16:25:44.880Z,15.70
2023-04-07T16:28:14.446Z,18.08
2023-04-07T16:30:44.043Z,17.50
2023-04-07T16:33:13.584Z,16.50
2023-04-07T16:35:44.347Z,20.02
2023-04-07T16:38:14.012Z,18.65
2023-04-07T16:41:02.600Z,15.75
2023-04-07T16:43:33.306Z,18.75
2023-04-07T16:46:02.996Z,16.38
2023-04-07T16:48:32.749Z,17.08
2023-04-07T16:51:02.362Z,16.80
2023-04-07T16:53:31.900Z,18.63
2023-04-07T16:56:04.019Z,18.30
2023-04-07T16:58:33.613Z,18.55
2023-04-07T17:01:03.198Z,18.30
2023-04-07T17:03:32.936Z,22.17
2023-04-07T17:06:05.760Z,24.50
2023-04-07T17:08:35.478Z,20.48
2023-04-07T17:11:09.050Z,18.83
2023-04-07T17:13:40.307Z,19.85
2023-04-07T17:16:14.712Z,23.42
2023-04-07T17:18:44.481Z,19.73
2023-04-07T17:21:15.576Z,17.83
2023-04-07T17:23:45.679Z,19.13
2023-04-07T17:26:17.799Z,16.20
2023-04-07T17:28:48.598Z,18.08
2023-04-07T17:31:18.300Z,14.88
2023-04-07T17:33:48.273Z,18.05
2023-04-07T17:36:18.178Z,18.25
2023-04-07T17:38:47.751Z,18.75
2023-04-07T17:41:19.874Z,21.65
2023-04-07T17:43:49.701Z,25.75
2023-04-07T17:46:19.466Z,36.13
2023-04-07T17:48:49.266Z,24.17
2023-04-07T17:51:19.162Z,23.63
2023-04-07T17:53:48.929Z,19.42
2023-04-07T17:56:21.344Z,18.63
2023-04-07T17:58:51.218Z,16.40
2023-04-07T18:01:20.784Z,17.23
2023-04-07T18:03:51.647Z,17.15
2023-04-07T18:06:22.048Z,16.45
2023-04-07T18:08:51.948Z,20.13
2023-04-07T18:11:24.133Z,16.27
2023-04-07T18:13:54.090Z,16.10
2023-04-07T18:16:23.732Z,16.88
2023-04-07T18:18:53.295Z,19.13
2023-04-07T18:21:22.903Z,16.40
2023-04-07T18:23:52.437Z,23.00
2023-04-07T18:26:24.534Z,18.17
2023-04-07T18:28:54.096Z,17.35
2023-04-07T18:31:23.757Z,16.88
2023-04-07T18:33:53.347Z,18.02
2023-04-07T18:36:25.694Z,17.75
2023-04-07T18:38:55.248Z,18.30
2023-04-07T18:41:27.472Z,18.75
2023-04-07T18:43:57.041Z,17.25
2023-04-07T18:46:27.508Z,20.23
2023-04-07T18:48:57.142Z,16.88
2023-04-07T18:51:26.681Z,21.75
2023-04-07T18:53:56.258Z,19.77
2023-04-07T18:56:28.742Z,16.90
2023-04-07T18:58:58.579Z,15.48
2023-04-07T19:01:28.293Z,16.92
2023-04-07T19:03:57.958Z,20.25
2023-04-07T19:06:28.162Z,21.05
2023-04-07T19:08:57.934Z,19.05
2023-04-07T19:11:30.102Z,19.05
2023-04-07T19:13:59.645Z,19.73
2023-04-07T19:16:29.314Z,20.20
2023-04-07T19:18:58.839Z,21.35
2023-04-07T19:21:28.755Z,20.63
2023-04-07T19:23:59.655Z,20.95
2023-04-07T19:26:31.943Z,21.20
2023-04-07T19:29:03.217Z,21.65
2023-04-07T19:31:32.947Z,23.50
2023-04-07T19:34:02.575Z,22.67
2023-04-07T19:36:33.004Z,19.38
2023-04-07T19:39:04.558Z,23.42
2023-04-07T19:41:36.723Z,17.50
2023-04-07T19:44:06.269Z,21.40
2023-04-07T19:46:36.697Z,21.00
2023-04-07T19:49:06.224Z,21.30
2023-04-07T19:51:35.858Z,19.45
2023-04-07T19:54:05.417Z,21.63
2023-04-07T19:56:37.763Z,23.05
2023-04-07T19:59:07.376Z,21.00
2023-04-07T20:01:37.061Z,24.50
2023-04-07T20:04:06.746Z,22.17
2023-04-07T20:06:36.888Z,20.13
2023-04-07T20:09:06.611Z,22.80
2023-04-07T20:11:38.741Z,21.83
2023-04-07T20:14:08.311Z,22.30
2023-04-07T20:16:37.938Z,19.77
2023-04-07T20:19:07.499Z,22.80
2023-04-07T20:21:37.778Z,24.05
2023-04-07T20:24:07.404Z,21.58
2023-04-07T20:26:39.512Z,24.92
2023-04-07T20:29:09.099Z,21.67
2023-04-07T20:31:38.664Z,23.02
2023-04-07T20:34:08.232Z,22.58
2023-04-07T20:36:37.813Z,23.48
2023-04-07T20:39:07.422Z,27.88
2023-04-07T20:41:42.863Z,22.17
2023-04-07T20:44:12.394Z,24.70
2023-04-07T20:46:42.224Z,24.33
2023-04-07T20:49:11.748Z,27.73
2023-04-07T20:51:41.300Z,26.10
2023-04-07T20:54:10.855Z,27.13
2023-04-07T20:56:44.779Z,23.67
2023-04-07T20:59:14.324Z,24.33
2023-04-07T21:01:44.781Z,22.98
2023-04-07T21:04:14.567Z,24.52
2023-04-07T21:06:44.238Z,25.55
2023-04-07T21:09:13.889Z,22.50
2023-04-07T21:11:46.139Z,27.15
2023-04-07T21:14:15.788Z,22.05
2023-04-07T21:16:45.465Z,26.63
2023-04-07T21:19:15.369Z,22.67
2023-04-07T21:21:44.972Z,28.00
2023-04-07T21:24:14.586Z,26.08
2023-04-07T21:26:46.755Z,24.55
2023-04-07T21:29:16.288Z,23.77
2023-04-07T21:31:46.159Z,27.25
2023-04-07T21:34:15.722Z,26.60
2023-04-07T21:36:45.428Z,23.65
2023-04-07T21:39:14.912Z,26.15
2023-04-07T21:41:47.055Z,21.00
2023-04-07T21:44:20.022Z,24.85
2023-04-07T21:46:49.707Z,24.48
2023-04-07T21:49:22.503Z,23.25
2023-04-07T21:51:52.373Z,23.77
2023-04-07T21:54:22.427Z,23.77
2023-04-07T21:56:54.570Z,21.75
2023-04-07T21:59:24.145Z,20.90
2023-04-07T22:01:53.868Z,21.48
2023-04-07T22:04:23.670Z,21.25
2023-04-07T22:06:53.265Z,23.85
2023-04-07T22:09:23.273Z,24.35
2023-04-07T22:11:56.010Z,20.85
2023-04-07T22:14:26.627Z,23.00
2023-04-07T22:16:56.389Z,21.85
2023-04-07T22:19:25.898Z,21.65
2023-04-07T22:21:56.047Z,19.25
2023-04-07T22:24:25.593Z,23.63
2023-04-07T22:26:58.981Z,23.25
2023-04-07T22:29:28.522Z,21.83
2023-04-07T22:31:58.067Z,21.52
2023-04-07T22:34:27.718Z,19.77
2023-04-07T22:36:57.872Z,19.90
2023-04-07T22:39:27.397Z,23.23
2023-04-07T22:41:59.544Z,20.55
2023-04-07T22:44:29.098Z,19.15
2023-04-07T22:46:59.123Z,18.30
2023-04-07T22:49:28.843Z,18.90
2023-04-07T22:51:58.418Z,22.58
2023-04-07T22:54:27.940Z,20.38
2023-04-07T22:57:00.119Z,23.10
2023-04-07T22:59:29.688Z,21.00
2023-04-07T23:01:59.424Z,20.98
2023-04-07T23:04:29.022Z,23.33
2023-04-07T23:06:58.604Z,21.27
2023-04-07T23:09:28.445Z,23.70
2023-04-07T23:12:01.558Z,26.55
2023-04-07T23:14:31.129Z,20.85
2023-04-07T23:17:01.347Z,21.77
2023-04-07T23:19:30.912Z,21.65
2023-04-07T23:22:00.489Z,20.85
2023-04-07T23:24:30.029Z,21.48
2023-04-07T23:27:02.189Z,20.13
2023-04-07T23:29:31.745Z,22.23
2023-04-07T23:32:01.496Z,20.25
2023-04-07T23:34:31.083Z,33.30
2023-04-07T23:37:00.603Z,25.30
2023-04-07T23:39:30.148Z,26.58
2023-04-07T23:42:02.274Z,27.23
2023-04-07T23:44:31.834Z,28.70
2023-04-07T23:47:01.560Z,28.42
2023-04-07T23:49:31.530Z,30.80
2023-04-07T23:52:01.933Z,29.52
2023-04-07T23:54:31.677Z,27.30
2023-04-07T23:57:04.501Z,29.85
2023-04-07T23:59:34.090Z,32.67
